createdAt,value
2022-12-27T00:00:18.558Z,16.17
2022-12-27T00:03:06.618Z,11.48
2022-12-27T00:05:34.370Z,11.88
2022-12-27T00:08:02.402Z,14.57
2022-12-27T00:10:30.114Z,11.68
2022-12-27T00:12:58.201Z,10.73
2022-12-27T00:15:26.580Z,13.33
2022-12-27T00:17:54.513Z,15.55
2022-12-27T00:20:22.323Z,11.40
2022-12-27T00:22:50.365Z,13.23
2022-12-27T00:25:18.095Z,12.63
2022-12-27T00:27:46.036Z,8.80
2022-12-27T00:30:13.901Z,13.90
2022-12-27T00:32:41.923Z,11.10
2022-12-27T00:35:10.108Z,9.18
2022-12-27T00:37:37.982Z,9.43
2022-12-27T00:40:06.139Z,9.00
2022-12-27T00:42:34.158Z,9.10
2022-12-27T00:45:01.723Z,7.53
2022-12-27T00:47:29.642Z,8.75
2022-12-27T00:49:57.244Z,9.73
2022-12-27T00:52:25.154Z,8.15
2022-12-27T00:54:52.785Z,5.38
2022-12-27T00:57:21.566Z,7.60
2022-12-27T00:59:49.165Z,8.90
2022-12-27T01:02:17.161Z,5.45
2022-12-27T01:04:45.225Z,9.98
2022-12-27T01:07:13.201Z,9.43
2022-12-27T01:09:40.677Z,7.93
2022-12-27T01:12:08.587Z,8.30
2022-12-27T01:14:36.256Z,6.22
2022-12-27T01:17:04.181Z,8.38
2022-12-27T01:19:31.838Z,7.13
2022-12-27T01:21:59.720Z,7.47
2022-12-27T01:24:27.365Z,10.00
2022-12-27T01:26:55.298Z,8.85
2022-12-27T01:29:22.952Z,4.80
2022-12-27T01:31:51.491Z,12.07
2022-12-27T01:34:19.748Z,3.72
2022-12-27T01:36:47.724Z,4.70
2022-12-27T01:39:15.534Z,8.63
2022-12-27T01:42:03.886Z,6.68
2022-12-27T01:44:41.024Z,7.18
2022-12-27T01:48:10.964Z,4.00
2022-12-27T01:50:49.204Z,4.47
2022-12-27T01:53:25.739Z,3.50
2022-12-27T01:56:04.916Z,5.28
2022-12-27T01:58:50.166Z,6.22
2022-12-27T02:01:28.349Z,4.25
2022-12-27T02:04:15.822Z,5.90
2022-12-27T02:06:43.912Z,2.22
2022-12-27T02:09:11.805Z,4.70
2022-12-27T02:11:51.858Z,3.13
2022-12-27T02:14:47.149Z,4.22
2022-12-27T02:17:28.449Z,2.80
2022-12-27T02:20:18.897Z,2.13
2022-12-27T02:23:39.932Z,3.13
2022-12-27T02:26:45.078Z,6.85
2022-12-27T02:29:35.467Z,4.28
2022-12-27T02:32:12.208Z,1.92
2022-12-27T02:34:51.432Z,1.60
2022-12-27T02:37:21.473Z,4.10
2022-12-27T02:39:51.775Z,4.93
2022-12-27T02:42:39.385Z,3.00
2022-12-27T02:45:39.342Z,2.00
2022-12-27T02:48:33.575Z,1.85
2022-12-27T02:51:58.502Z,1.40
2022-12-27T02:55:14.027Z,3.08
2022-12-27T02:57:52.757Z,2.22
2022-12-27T03:00:43.315Z,1.95
2022-12-27T03:03:44.965Z,2.03
2022-12-27T03:06:52.469Z,1.33
2022-12-27T03:10:19.620Z,3.92
2022-12-27T03:13:45.573Z,3.00
2022-12-27T03:16:25.178Z,1.30
2022-12-27T03:19:12.774Z,1.92
2022-12-27T03:22:07.892Z,1.95
2022-12-27T03:24:59.221Z,2.92
2022-12-27T03:27:36.357Z,3.08
2022-12-27T03:30:28.356Z,2.85
2022-12-27T03:33:13.949Z,3.08
2022-12-27T03:36:11.058Z,4.53
2022-12-27T03:39:00.952Z,5.10
2022-12-27T03:41:55.068Z,4.75
2022-12-27T03:44:25.651Z,4.18
2022-12-27T03:47:48.377Z,5.78
2022-12-27T03:50:36.538Z,7.45
2022-12-27T03:53:21.558Z,8.67
2022-12-27T03:55:50.108Z,9.32
2022-12-27T03:58:18.078Z,12.23
2022-12-27T04:00:45.803Z,13.05
2022-12-27T04:03:13.919Z,17.15
2022-12-27T04:05:41.650Z,12.98
2022-12-27T04:08:28.386Z,11.52
2022-12-27T04:11:14.567Z,11.13
2022-12-27T04:14:01.034Z,12.10
2022-12-27T04:16:47.386Z,13.50
2022-12-27T04:19:33.953Z,14.07
2022-12-27T04:22:20.231Z,16.55
2022-12-27T04:25:07.108Z,17.52
2022-12-27T04:27:53.457Z,16.00
2022-12-27T04:30:40.110Z,13.98
2022-12-27T04:33:26.380Z,15.68
2022-12-27T04:35:54.484Z,22.15
2022-12-27T04:38:22.545Z,16.75
2022-12-27T04:41:09.408Z,15.20
2022-12-27T04:43:55.736Z,12.10
2022-12-27T04:46:44.655Z,16.65
2022-12-27T04:49:42.596Z,15.73
2022-12-27T04:52:41.502Z,16.58
2022-12-27T04:55:22.567Z,16.83
2022-12-27T04:57:52.658Z,16.65
2022-12-27T05:00:41.156Z,22.30
2022-12-27T05:03:16.526Z,21.63
2022-12-27T05:05:45.387Z,21.17
2022-12-27T05:08:33.754Z,19.55
2022-12-27T05:11:20.043Z,21.70
2022-12-27T05:13:59.970Z,21.67
2022-12-27T05:16:40.008Z,16.48
2022-12-27T05:19:11.415Z,16.65
2022-12-27T05:22:01.623Z,15.48
2022-12-27T05:24:50.851Z,15.50
2022-12-27T05:27:19.540Z,13.30
2022-12-27T05:29:47.686Z,11.30
2022-12-27T05:32:15.311Z,9.45
2022-12-27T05:34:43.298Z,7.15
2022-12-27T05:37:10.872Z,8.82
2022-12-27T05:39:38.920Z,5.40
2022-12-27T05:42:06.767Z,5.80
2022-12-27T05:44:34.635Z,4.20
2022-12-27T05:47:02.326Z,9.48
2022-12-27T05:49:30.340Z,4.47
2022-12-27T05:51:57.995Z,3.15
2022-12-27T05:54:25.919Z,7.15
2022-12-27T05:56:53.524Z,3.90
2022-12-27T05:59:21.508Z,3.28
2022-12-27T06:01:49.221Z,5.57
2022-12-27T06:04:17.262Z,8.18
2022-12-27T06:06:44.907Z,4.90
2022-12-27T06:09:12.942Z,4.20
2022-12-27T06:11:40.449Z,8.93
2022-12-27T06:14:08.306Z,2.92
2022-12-27T06:16:37.464Z,1.88
2022-12-27T06:21:33.016Z,3.50
2022-12-27T06:24:00.945Z,1.52
2022-12-27T06:26:30.194Z,3.45
2022-12-27T06:28:58.973Z,2.42
2022-12-27T06:31:27.420Z,3.78
2022-12-27T06:33:56.245Z,6.63
2022-12-27T06:36:30.973Z,1.95
2022-12-27T06:39:00.410Z,2.28
2022-12-27T06:41:28.006Z,6.82
2022-12-27T06:43:58.185Z,2.50
2022-12-27T06:46:26.039Z,6.13
2022-12-27T06:48:53.960Z,2.60
2022-12-27T06:51:21.896Z,3.78
2022-12-27T06:53:50.300Z,5.07
2022-12-27T06:56:21.899Z,8.60
2022-12-27T06:58:51.331Z,8.52
2022-12-27T07:01:25.380Z,5.57
2022-12-27T07:03:56.463Z,4.07
2022-12-27T07:06:26.163Z,4.30
2022-12-27T07:08:56.749Z,9.85
2022-12-27T07:11:25.307Z,7.80
2022-12-27T07:13:55.887Z,17.63
2022-12-27T07:16:27.601Z,9.93
2022-12-27T07:18:58.650Z,9.77
2022-12-27T07:21:29.238Z,6.18
2022-12-27T07:23:57.844Z,8.90
2022-12-27T07:26:30.073Z,9.25
2022-12-27T07:29:01.056Z,5.80
2022-12-27T07:31:32.751Z,6.10
2022-12-27T07:34:03.862Z,10.63
2022-12-27T07:36:37.134Z,6.00
2022-12-27T07:39:07.182Z,8.70
2022-12-27T07:41:35.888Z,5.95
2022-12-27T07:44:04.212Z,6.03
2022-12-27T07:46:31.896Z,9.68
2022-12-27T07:49:00.507Z,5.32
2022-12-27T07:51:29.759Z,8.77
2022-12-27T07:56:27.739Z,15.38
2022-12-27T07:58:58.657Z,19.27
2022-12-27T08:01:30.262Z,13.50
2022-12-27T08:03:57.922Z,14.32
2022-12-27T08:06:30.550Z,8.23
2022-12-27T08:09:03.716Z,11.50
2022-12-27T08:11:31.724Z,16.13
2022-12-27T08:14:00.088Z,15.93
2022-12-27T08:16:28.156Z,10.88
2022-12-27T08:18:56.338Z,20.33
2022-12-27T08:21:24.270Z,25.87
2022-12-27T08:23:52.210Z,17.83
2022-12-27T08:26:21.356Z,17.10
2022-12-27T08:28:49.019Z,16.85
2022-12-27T08:31:16.998Z,15.95
2022-12-27T08:33:44.928Z,12.30
2022-12-27T08:36:54.048Z,12.90
2022-12-27T08:39:01.062Z,11.57
2022-12-27T08:41:29.011Z,12.13
2022-12-27T08:43:56.572Z,5.93
2022-12-27T08:46:24.550Z,8.48
2022-12-27T08:48:52.227Z,10.65
2022-12-27T08:51:31.361Z,3.47
2022-12-27T08:54:00.629Z,6.85
2022-12-27T08:56:28.540Z,7.78
2022-12-27T08:58:56.051Z,11.15
2022-12-27T09:01:25.593Z,7.72
2022-12-27T09:03:53.213Z,10.77
2022-12-27T09:06:23.991Z,15.52
2022-12-27T09:08:52.758Z,13.55
2022-12-27T09:11:27.868Z,13.35
2022-12-27T09:13:58.020Z,5.85
2022-12-27T09:16:28.646Z,9.50
2022-12-27T09:18:58.834Z,11.38
2022-12-27T09:21:30.361Z,10.55
2022-12-27T09:23:58.308Z,22.77
2022-12-27T09:26:30.142Z,20.38
2022-12-27T09:28:59.619Z,19.58
2022-12-27T09:31:28.157Z,16.63
2022-12-27T09:33:56.834Z,18.70
2022-12-27T09:36:28.305Z,9.18
2022-12-27T09:38:58.588Z,17.05
2022-12-27T09:44:56.810Z,10.90
2022-12-27T09:47:39.491Z,11.88
2022-12-27T09:50:20.855Z,12.98
2022-12-27T09:53:10.775Z,12.65
2022-12-27T09:55:47.258Z,13.90
2022-12-27T09:58:47.004Z,15.70
2022-12-27T10:01:24.548Z,22.80
2022-12-27T10:03:53.317Z,14.93
2022-12-27T10:06:51.057Z,15.57
2022-12-27T10:09:45.720Z,12.60
2022-12-27T10:12:32.043Z,18.33
2022-12-27T10:15:49.408Z,16.48
2022-12-27T10:18:28.952Z,17.85
2022-12-27T10:21:17.058Z,16.90
2022-12-27T10:23:52.841Z,18.17
2022-12-27T10:26:21.839Z,19.85
2022-12-27T10:29:24.092Z,20.60
2022-12-27T10:31:52.932Z,18.65
2022-12-27T10:34:24.866Z,18.88
2022-12-27T10:36:53.532Z,17.50
2022-12-27T10:39:28.658Z,12.32
2022-12-27T10:42:37.343Z,13.18
2022-12-27T10:45:36.254Z,13.53
2022-12-27T10:48:32.156Z,15.68
2022-12-27T10:51:11.398Z,19.92
2022-12-27T10:54:01.697Z,15.82
2022-12-27T10:56:34.412Z,17.52
2022-12-27T10:59:13.503Z,17.88
2022-12-27T11:01:41.339Z,20.15
2022-12-27T11:04:19.851Z,18.48
2022-12-27T11:07:14.098Z,15.70
2022-12-27T11:09:50.215Z,14.43
2022-12-27T11:12:26.027Z,12.00
2022-12-27T11:15:02.960Z,18.17
2022-12-27T11:17:42.208Z,12.13
2022-12-27T11:23:09.450Z,15.73
2022-12-27T11:25:58.785Z,31.10
2022-12-27T11:28:26.195Z,14.15
2022-12-27T11:31:02.396Z,17.45
2022-12-27T11:33:47.374Z,12.32
2022-12-27T11:36:28.570Z,15.55
2022-12-27T11:38:56.911Z,16.80
2022-12-27T11:41:42.781Z,15.88
2022-12-27T11:44:19.190Z,15.20
2022-12-27T11:47:03.614Z,15.13
2022-12-27T11:49:46.546Z,14.73
2022-12-27T11:53:12.654Z,18.42
2022-12-27T11:56:19.633Z,19.23
2022-12-27T11:59:19.332Z,27.33
2022-12-27T12:02:14.364Z,17.25
2022-12-27T12:05:14.741Z,20.10
2022-12-27T12:08:05.881Z,20.65
2022-12-27T12:11:03.042Z,21.13
2022-12-27T12:14:43.713Z,13.25
2022-12-27T12:17:55.697Z,17.00
2022-12-27T12:21:02.590Z,15.23
2022-12-27T12:24:04.410Z,14.68
2022-12-27T12:27:09.988Z,19.05
2022-12-27T12:30:12.837Z,22.88
2022-12-27T12:33:07.820Z,18.13
2022-12-27T12:35:59.213Z,9.57
2022-12-27T12:38:56.506Z,10.38
2022-12-27T12:41:44.683Z,6.15
2022-12-27T12:44:23.484Z,7.57
2022-12-27T12:47:52.243Z,8.57
2022-12-27T12:50:53.578Z,10.35
2022-12-27T12:54:07.573Z,8.70
2022-12-27T12:56:49.784Z,6.60
2022-12-27T12:59:41.355Z,11.63
2022-12-27T13:02:51.909Z,10.73
2022-12-27T13:05:26.003Z,11.35
2022-12-27T13:09:04.275Z,11.52
2022-12-27T13:11:41.212Z,12.23
2022-12-27T13:14:31.526Z,12.07
2022-12-27T13:17:15.657Z,14.02
2022-12-27T13:20:22.716Z,10.90
2022-12-27T13:23:28.471Z,12.02
2022-12-27T13:26:21.512Z,10.75
2022-12-27T13:29:29.171Z,13.02
2022-12-27T13:32:27.899Z,11.50
2022-12-27T13:35:20.572Z,10.52
2022-12-27T13:38:26.756Z,9.43
2022-12-27T13:41:11.260Z,17.88
2022-12-27T13:44:22.341Z,9.27
2022-12-27T13:47:16.141Z,8.90
2022-12-27T13:50:01.888Z,8.35
2022-12-27T13:52:59.994Z,5.75
2022-12-27T13:56:27.687Z,7.05
2022-12-27T13:59:31.433Z,6.38
2022-12-27T14:02:37.541Z,7.45
2022-12-27T14:05:38.040Z,12.18
2022-12-27T14:08:46.469Z,4.50
2022-12-27T14:11:43.407Z,5.05
2022-12-27T14:14:17.177Z,8.45
2022-12-27T14:17:08.468Z,8.80
2022-12-27T14:20:11.144Z,7.00
2022-12-27T14:23:08.713Z,5.68
2022-12-27T14:26:18.385Z,4.97
2022-12-27T14:29:22.872Z,4.60
2022-12-27T14:32:14.141Z,8.02
2022-12-27T14:35:02.176Z,7.50
2022-12-27T14:37:59.810Z,2.58
2022-12-27T14:41:08.546Z,3.65
2022-12-27T14:44:41.856Z,3.25
2022-12-27T14:47:34.835Z,4.40
2022-12-27T14:50:42.055Z,3.67
2022-12-27T14:53:52.629Z,3.47
2022-12-27T14:56:48.439Z,2.90
2022-12-27T14:59:52.974Z,5.07
2022-12-27T15:02:41.988Z,3.53
2022-12-27T15:05:43.483Z,5.32
2022-12-27T15:08:58.734Z,3.97
2022-12-27T15:11:49.199Z,5.28
2022-12-27T15:15:19.520Z,1.97
2022-12-27T15:18:09.831Z,4.63
2022-12-27T15:21:08.774Z,5.65
2022-12-27T15:26:46.828Z,5.47
2022-12-27T15:29:32.091Z,2.97
2022-12-27T15:32:16.783Z,9.05
2022-12-27T15:35:24.619Z,4.35
2022-12-27T15:38:18.146Z,5.68
2022-12-27T15:41:37.184Z,4.03
2022-12-27T15:44:24.642Z,7.95
2022-12-27T15:47:15.973Z,7.88
2022-12-27T15:50:24.692Z,9.57
2022-12-27T15:53:45.326Z,9.13
2022-12-27T15:56:21.198Z,12.68
2022-12-27T15:59:37.736Z,9.52
2022-12-27T16:02:17.174Z,7.93
2022-12-27T16:05:10.659Z,8.20
2022-12-27T16:07:47.446Z,10.45
2022-12-27T16:10:42.544Z,6.00
2022-12-27T16:13:10.565Z,8.70
2022-12-27T16:15:53.749Z,5.18
2022-12-27T16:18:24.017Z,10.48
2022-12-27T16:20:59.574Z,4.78
2022-12-27T16:23:48.074Z,5.55
2022-12-27T16:26:15.854Z,4.10
2022-12-27T16:29:05.340Z,4.57
2022-12-27T16:31:52.301Z,8.17
2022-12-27T16:34:30.624Z,4.50
2022-12-27T16:37:00.703Z,5.57
2022-12-27T16:39:49.935Z,7.28
2022-12-27T16:42:39.190Z,5.05
2022-12-27T16:45:39.373Z,10.57
2022-12-27T16:48:36.928Z,9.82
2022-12-27T16:51:16.551Z,8.65
2022-12-27T16:56:21.432Z,7.30
2022-12-27T16:58:49.712Z,8.05
2022-12-27T17:01:26.286Z,9.13
2022-12-27T17:03:55.960Z,6.82
2022-12-27T17:06:32.343Z,10.05
2022-12-27T17:09:09.932Z,6.57
2022-12-27T17:12:01.938Z,3.97
2022-12-27T17:14:37.131Z,6.18
2022-12-27T17:17:16.612Z,6.80
2022-12-27T17:20:07.658Z,7.07
2022-12-27T17:22:39.494Z,3.75
2022-12-27T17:25:14.333Z,10.32
2022-12-27T17:28:17.269Z,7.95
2022-12-27T17:31:06.059Z,6.28
2022-12-27T17:33:38.186Z,3.58
2022-12-27T17:37:03.847Z,8.82
2022-12-27T17:39:59.249Z,6.70
2022-12-27T17:43:07.143Z,3.97
2022-12-27T17:46:24.819Z,7.97
2022-12-27T17:48:56.103Z,3.35
2022-12-27T17:51:30.562Z,2.95
2022-12-27T17:54:17.213Z,7.75
2022-12-27T17:57:05.794Z,1.50
2022-12-27T17:59:35.347Z,7.97
2022-12-27T18:02:32.755Z,3.47
2022-12-27T18:05:06.362Z,4.68
2022-12-27T18:07:35.389Z,7.15
2022-12-27T18:10:25.831Z,3.40
2022-12-27T18:13:01.022Z,4.88
2022-12-27T18:15:34.242Z,6.40
2022-12-27T18:18:08.529Z,4.35
2022-12-27T18:20:40.813Z,8.50
2022-12-27T18:23:27.823Z,9.40
2022-12-27T18:26:17.308Z,7.10
2022-12-27T18:28:45.039Z,3.08
2022-12-27T18:31:26.413Z,10.10
2022-12-27T18:34:08.122Z,4.90
2022-12-27T18:36:48.981Z,9.32
2022-12-27T18:39:33.876Z,4.65
2022-12-27T18:42:35.550Z,8.23
2022-12-27T18:45:08.610Z,9.05
2022-12-27T18:47:45.889Z,5.20
2022-12-27T18:50:21.832Z,2.88
2022-12-27T18:53:20.910Z,9.73
2022-12-27T18:56:19.116Z,6.50
2022-12-27T18:59:01.061Z,8.20
2022-12-27T19:01:55.140Z,7.50
2022-12-27T19:04:33.620Z,13.63
2022-12-27T19:07:12.634Z,16.55
2022-12-27T19:09:51.052Z,14.00
2022-12-27T19:12:37.178Z,12.15
2022-12-27T19:15:24.940Z,10.27
2022-12-27T19:18:03.760Z,11.57
2022-12-27T19:20:36.946Z,7.70
2022-12-27T19:23:24.984Z,6.05
2022-12-27T19:26:20.793Z,12.35
2022-12-27T19:29:14.571Z,9.35
2022-12-27T19:31:51.184Z,7.07
2022-12-27T19:34:20.813Z,4.93
2022-12-27T19:36:49.615Z,6.13
2022-12-27T19:39:36.962Z,7.88
2022-12-27T19:42:08.410Z,8.43
2022-12-27T19:44:37.150Z,7.75
2022-12-27T19:47:05.106Z,7.47
2022-12-27T19:49:47.906Z,4.28
2022-12-27T19:52:25.625Z,10.73
2022-12-27T19:55:09.220Z,10.35
2022-12-27T19:57:40.113Z,6.57
2022-12-27T20:00:17.609Z,6.65
2022-12-27T20:02:46.107Z,5.40
2022-12-27T20:05:14.250Z,9.27
2022-12-27T20:07:42.482Z,10.13
2022-12-27T20:10:15.264Z,12.52
2022-12-27T20:12:43.289Z,6.13
2022-12-27T20:15:11.079Z,9.52
2022-12-27T20:17:44.604Z,6.25
2022-12-27T20:20:13.288Z,15.57
2022-12-27T20:22:41.312Z,9.98
2022-12-27T20:25:09.605Z,11.75
2022-12-27T20:27:37.485Z,6.15
2022-12-27T20:30:07.170Z,8.05
2022-12-27T20:32:36.017Z,9.88
2022-12-27T20:35:14.268Z,9.45
2022-12-27T20:37:46.390Z,7.78
2022-12-27T20:40:14.916Z,7.25
2022-12-27T20:42:56.160Z,5.72
2022-12-27T20:45:25.283Z,6.78
2022-12-27T20:47:53.143Z,9.75
2022-12-27T20:50:20.688Z,8.02
2022-12-27T20:52:48.633Z,10.35
2022-12-27T20:55:16.206Z,5.97
2022-12-27T20:57:44.686Z,6.45
2022-12-27T21:00:14.013Z,9.27
2022-12-27T21:02:42.352Z,4.93
2022-12-27T21:05:10.140Z,5.03
2022-12-27T21:07:38.056Z,7.82
2022-12-27T21:10:06.292Z,5.80
2022-12-27T21:12:35.481Z,4.78
2022-12-27T21:15:04.890Z,6.30
2022-12-27T21:20:00.373Z,5.88
2022-12-27T21:22:28.455Z,7.63
2022-12-27T21:24:56.004Z,5.85
2022-12-27T21:27:24.121Z,4.72
2022-12-27T21:29:51.781Z,4.60
2022-12-27T21:32:19.748Z,9.82
2022-12-27T21:34:47.994Z,5.10
2022-12-27T21:37:16.191Z,3.67
2022-12-27T21:39:43.807Z,3.90
2022-12-27T21:42:12.456Z,4.43
2022-12-27T21:44:40.021Z,6.72
2022-12-27T21:47:07.947Z,10.35
2022-12-27T21:49:36.620Z,10.65
2022-12-27T21:52:04.861Z,8.45
2022-12-27T21:54:32.618Z,9.55
2022-12-27T21:57:00.593Z,8.00
2022-12-27T21:59:28.352Z,6.10
2022-12-27T22:01:56.681Z,5.38
2022-12-27T22:04:24.348Z,3.25
2022-12-27T22:06:52.257Z,7.47
2022-12-27T22:09:19.960Z,3.13
2022-12-27T22:11:48.209Z,4.13
2022-12-27T22:14:16.165Z,3.75
2022-12-27T22:16:44.109Z,4.88
2022-12-27T22:19:13.270Z,1.88
2022-12-27T22:24:17.256Z,7.20
2022-12-27T22:26:45.457Z,5.28
2022-12-27T22:29:13.169Z,4.65
2022-12-27T22:31:42.898Z,9.10
2022-12-27T22:36:38.453Z,5.75
2022-12-27T22:39:06.187Z,7.55
2022-12-27T22:41:36.474Z,14.43
2022-12-27T22:44:10.978Z,8.30
2022-12-27T22:47:06.793Z,9.35
2022-12-27T22:49:26.774Z,5.07
2022-12-27T22:51:54.633Z,5.53
2022-12-27T22:55:03.962Z,4.47
2022-12-27T22:57:10.423Z,3.38
2022-12-27T22:59:38.002Z,3.17
2022-12-27T23:02:05.956Z,4.53
2022-12-27T23:04:33.802Z,3.95
2022-12-27T23:07:02.295Z,2.15
2022-12-27T23:09:30.224Z,5.00
2022-12-27T23:11:58.229Z,4.20
2022-12-27T23:14:26.054Z,5.22
2022-12-27T23:16:53.909Z,2.38
2022-12-27T23:19:24.445Z,3.83
2022-12-27T23:21:52.554Z,1.80
2022-12-27T23:24:20.195Z,4.35
2022-12-27T23:26:48.156Z,2.95
2022-12-27T23:29:15.912Z,1.63
2022-12-27T23:31:55.217Z,1.25
2022-12-27T23:34:28.097Z,5.95
2022-12-27T23:36:58.998Z,3.53
2022-12-27T23:39:27.343Z,2.80
2022-12-27T23:41:55.728Z,4.25
2022-12-27T23:44:33.160Z,3.72
2022-12-27T23:47:03.584Z,6.32
2022-12-27T23:49:31.330Z,8.90
2022-12-27T23:51:59.318Z,8.57
2022-12-27T23:54:26.886Z,8.30
2022-12-27T23:56:54.799Z,4.30
2022-12-27T23:59:22.410Z,8.45
